createdAt,value
2023-05-02T00:00:29.595Z,4.14
2023-05-02T00:01:29.280Z,4.12
2023-05-02T00:02:29.426Z,4.09
2023-05-02T00:03:29.532Z,4.12
2023-05-02T00:04:29.506Z,4.14
2023-05-02T00:05:29.410Z,4.07
2023-05-02T00:06:29.593Z,4.05
2023-05-02T00:07:29.487Z,4.04
2023-05-02T00:08:29.501Z,4.04
2023-05-02T00:09:29.534Z,4.04
2023-05-02T00:10:29.565Z,4.03
2023-05-02T00:11:29.613Z,4.06
2023-05-02T00:12:29.670Z,4.03
2023-05-02T00:13:29.707Z,4.01
2023-05-02T00:14:29.715Z,3.98
2023-05-02T00:15:29.734Z,3.99
2023-05-02T00:16:29.876Z,3.94
2023-05-02T00:17:29.818Z,4.03
2023-05-02T00:18:29.837Z,4.06
2023-05-02T00:19:29.874Z,3.96
2023-05-02T00:20:29.854Z,3.85
2023-05-02T00:21:29.893Z,3.93
2023-05-02T00:22:29.924Z,3.97
2023-05-02T00:23:29.979Z,3.94
2023-05-02T00:24:30.022Z,3.99
2023-05-02T00:25:30.019Z,3.96
2023-05-02T00:26:30.083Z,3.92
2023-05-02T00:27:30.125Z,3.81
2023-05-02T00:28:30.118Z,3.89
2023-05-02T00:29:30.164Z,3.90
2023-05-02T00:30:30.207Z,3.92
2023-05-02T00:31:30.296Z,3.86
2023-05-02T00:32:30.276Z,3.85
2023-05-02T00:33:30.350Z,3.91
2023-05-02T00:34:30.385Z,3.86
2023-05-02T00:35:30.358Z,3.81
2023-05-02T00:36:30.444Z,3.90
2023-05-02T00:37:30.451Z,3.86
2023-05-02T00:38:30.465Z,3.82
2023-05-02T00:39:30.485Z,3.82
2023-05-02T00:40:30.549Z,3.79
2023-05-02T00:41:30.610Z,3.78
2023-05-02T00:42:30.615Z,3.80
2023-05-02T00:43:30.647Z,3.89
2023-05-02T00:44:30.648Z,3.74
2023-05-02T00:45:30.705Z,3.78
2023-05-02T00:46:30.738Z,3.78
2023-05-02T00:47:30.840Z,3.76
2023-05-02T00:48:30.814Z,3.74
2023-05-02T00:49:30.839Z,3.73
2023-05-02T00:50:30.900Z,3.76
2023-05-02T00:51:30.903Z,3.73
2023-05-02T00:52:30.952Z,3.72
2023-05-02T00:53:30.965Z,3.74
2023-05-02T00:54:31.027Z,3.62
2023-05-02T00:55:31.088Z,3.73
2023-05-02T00:56:31.099Z,3.66
2023-05-02T00:57:31.154Z,3.68
2023-05-02T00:58:31.158Z,3.65
2023-05-02T00:59:31.212Z,3.61
2023-05-02T01:00:31.232Z,3.56
2023-05-02T01:01:31.345Z,3.60
2023-05-02T01:02:31.396Z,3.64
2023-05-02T01:03:31.495Z,3.60
2023-05-02T01:04:31.357Z,3.64
2023-05-02T01:05:31.402Z,3.60
2023-05-02T01:06:31.566Z,3.62
2023-05-02T01:07:31.484Z,3.61
2023-05-02T01:08:31.511Z,3.57
2023-05-02T01:09:31.527Z,3.56
2023-05-02T01:10:31.583Z,3.57
2023-05-02T01:11:32.107Z,3.51
2023-05-02T01:12:31.669Z,3.55
2023-05-02T01:13:31.712Z,3.59
2023-05-02T01:14:31.722Z,3.56
2023-05-02T01:15:31.759Z,3.48
2023-05-02T01:16:31.799Z,3.55
2023-05-02T01:17:31.831Z,3.50
2023-05-02T01:18:31.912Z,3.52
2023-05-02T01:19:31.915Z,3.45
2023-05-02T01:20:31.965Z,3.49
2023-05-02T01:21:32.031Z,3.54
2023-05-02T01:22:32.025Z,3.48
2023-05-02T01:23:32.079Z,3.44
2023-05-02T01:24:32.156Z,3.50
2023-05-02T01:25:32.159Z,3.53
2023-05-02T01:26:32.215Z,3.48
2023-05-02T01:27:32.212Z,3.45
2023-05-02T01:28:32.300Z,3.44
2023-05-02T01:29:32.285Z,3.36
2023-05-02T01:30:32.310Z,3.43
2023-05-02T01:31:32.641Z,3.45
2023-05-02T01:32:32.463Z,3.40
2023-05-02T01:33:32.448Z,3.39
2023-05-02T01:34:32.482Z,3.36
2023-05-02T01:35:32.532Z,3.43
2023-05-02T01:36:32.669Z,3.37
2023-05-02T01:37:32.667Z,3.38
2023-05-02T01:38:32.719Z,3.36
2023-05-02T01:39:32.680Z,3.36
2023-05-02T01:40:32.752Z,3.34
2023-05-02T01:41:32.786Z,3.30
2023-05-02T01:42:32.732Z,3.30
2023-05-02T01:43:32.780Z,3.37
2023-05-02T01:44:32.814Z,3.33
2023-05-02T01:45:32.866Z,3.33
2023-05-02T01:46:32.921Z,3.32
2023-05-02T01:47:32.963Z,3.28
2023-05-02T01:48:32.920Z,3.22
2023-05-02T01:49:32.935Z,3.23
2023-05-02T01:50:32.993Z,3.26
2023-05-02T01:51:33.013Z,3.31
2023-05-02T01:52:33.021Z,3.26
2023-05-02T01:53:33.077Z,3.25
2023-05-02T01:54:33.066Z,3.21
2023-05-02T01:55:33.085Z,3.24
2023-05-02T01:56:33.646Z,3.26
2023-05-02T01:57:33.149Z,3.25
2023-05-02T01:58:33.167Z,3.19
2023-05-02T01:59:33.193Z,3.19
2023-05-02T02:00:33.356Z,3.21
2023-05-02T02:01:33.391Z,3.20
2023-05-02T02:02:33.333Z,3.23
2023-05-02T02:03:33.427Z,3.20
2023-05-02T02:04:33.429Z,3.18
2023-05-02T02:05:33.416Z,3.20
2023-05-02T02:06:33.699Z,3.12
2023-05-02T02:07:33.576Z,3.18
2023-05-02T02:08:33.535Z,3.17
2023-05-02T02:09:33.601Z,3.13
2023-05-02T02:10:33.543Z,3.18
2023-05-02T02:11:33.565Z,3.21
2023-05-02T02:12:33.610Z,3.12
2023-05-02T02:13:33.662Z,3.11
2023-05-02T02:14:33.659Z,3.09
2023-05-02T02:15:33.740Z,3.16
2023-05-02T02:16:34.209Z,3.13
2023-05-02T02:17:33.768Z,3.11
2023-05-02T02:18:33.762Z,3.11
2023-05-02T02:19:33.767Z,3.06
2023-05-02T02:20:33.807Z,3.10
2023-05-02T02:21:34.122Z,3.04
2023-05-02T02:22:33.883Z,3.07
2023-05-02T02:23:33.859Z,3.03
2023-05-02T02:24:33.895Z,2.99
2023-05-02T02:25:33.927Z,3.04
2023-05-02T02:26:34.106Z,3.01
2023-05-02T02:27:33.970Z,3.02
2023-05-02T02:28:33.973Z,3.01
2023-05-02T02:29:34.028Z,3.02
2023-05-02T02:30:34.085Z,2.99
2023-05-02T02:31:34.290Z,2.99
2023-05-02T02:32:34.070Z,3.00
2023-05-02T02:33:34.165Z,2.95
2023-05-02T02:34:34.122Z,2.93
2023-05-02T02:35:34.142Z,2.99
2023-05-02T02:36:34.178Z,2.98
2023-05-02T02:37:34.183Z,2.99
2023-05-02T02:38:34.254Z,2.92
2023-05-02T02:39:34.307Z,2.95
2023-05-02T02:40:34.284Z,2.94
2023-05-02T02:41:34.591Z,2.95
2023-05-02T02:42:34.385Z,2.90
2023-05-02T02:43:34.366Z,2.90
2023-05-02T02:44:34.399Z,2.95
2023-05-02T02:45:34.456Z,2.93
2023-05-02T02:46:34.705Z,2.92
2023-05-02T02:47:34.511Z,2.98
2023-05-02T02:48:34.583Z,2.86
2023-05-02T02:49:34.572Z,2.94
2023-05-02T02:50:34.588Z,2.88
2023-05-02T02:51:35.149Z,2.86
2023-05-02T02:52:34.662Z,2.88
2023-05-02T02:53:34.705Z,2.84
2023-05-02T02:54:34.736Z,2.86
2023-05-02T02:55:34.770Z,2.83
2023-05-02T02:56:34.785Z,2.87
2023-05-02T02:57:34.770Z,2.83
2023-05-02T02:58:34.865Z,2.82
2023-05-02T02:59:34.863Z,2.82
2023-05-02T03:00:34.858Z,2.85
2023-05-02T03:01:34.945Z,2.80
2023-05-02T03:02:34.940Z,2.80
2023-05-02T03:03:35.023Z,2.83
2023-05-02T03:04:34.907Z,2.80
2023-05-02T03:05:34.962Z,2.85
2023-05-02T03:06:35.129Z,2.82
2023-05-02T03:07:35.595Z,2.82
2023-05-02T03:08:35.026Z,2.73
2023-05-02T03:09:35.059Z,2.80
2023-05-02T03:10:35.134Z,2.80
2023-05-02T03:11:35.650Z,2.79
2023-05-02T03:12:35.184Z,2.70
2023-05-02T03:13:35.332Z,2.82
2023-05-02T03:14:35.184Z,2.75
2023-05-02T03:15:35.238Z,2.81
2023-05-02T03:16:35.378Z,2.71
2023-05-02T03:17:35.315Z,2.77
2023-05-02T03:18:35.314Z,2.74
2023-05-02T03:19:35.413Z,2.73
2023-05-02T03:20:35.381Z,2.78
2023-05-02T03:21:35.453Z,2.67
2023-05-02T03:22:35.424Z,2.69
2023-05-02T03:23:35.454Z,2.70
2023-05-02T03:24:35.487Z,2.70
2023-05-02T03:25:35.521Z,2.65
2023-05-02T03:26:35.567Z,2.71
2023-05-02T03:27:35.592Z,2.70
2023-05-02T03:28:36.142Z,2.64
2023-05-02T03:29:35.607Z,2.62
2023-05-02T03:30:35.645Z,2.67
2023-05-02T03:31:35.732Z,2.66
2023-05-02T03:32:35.689Z,2.66
2023-05-02T03:33:35.661Z,2.60
2023-05-02T03:34:35.718Z,2.62
2023-05-02T03:35:35.708Z,2.62
2023-05-02T03:36:35.753Z,2.63
2023-05-02T03:37:35.729Z,2.68
2023-05-02T03:38:35.858Z,2.60
2023-05-02T03:39:35.823Z,2.58
2023-05-02T03:40:35.882Z,2.57
2023-05-02T03:41:35.858Z,2.58
2023-05-02T03:42:35.848Z,2.61
2023-05-02T03:43:35.876Z,2.55
2023-05-02T03:44:35.922Z,2.62
2023-05-02T03:45:36.642Z,2.59
2023-05-02T03:46:35.996Z,2.57
2023-05-02T03:47:36.022Z,2.61
2023-05-02T03:48:36.043Z,2.57
2023-05-02T03:49:36.016Z,2.55
2023-05-02T03:50:36.079Z,2.56
2023-05-02T03:51:36.115Z,2.56
2023-05-02T03:52:36.111Z,2.51
2023-05-02T03:53:36.172Z,2.54
2023-05-02T03:54:36.186Z,2.54
2023-05-02T03:55:36.189Z,2.50
2023-05-02T03:56:36.306Z,2.54
2023-05-02T03:57:36.278Z,2.51
2023-05-02T03:58:36.344Z,2.48
2023-05-02T03:59:36.420Z,2.45
2023-05-02T04:00:36.490Z,2.54
2023-05-02T04:01:36.510Z,2.47
2023-05-02T04:02:36.639Z,2.43
2023-05-02T04:03:36.681Z,2.46
2023-05-02T04:04:36.736Z,2.46
2023-05-02T04:05:36.608Z,2.47
2023-05-02T04:06:36.694Z,2.48
2023-05-02T04:07:36.680Z,2.50
2023-05-02T04:08:36.677Z,2.43
2023-05-02T04:09:36.721Z,2.47
2023-05-02T04:10:36.744Z,2.42
2023-05-02T04:11:36.815Z,2.47
2023-05-02T04:12:36.824Z,2.46
2023-05-02T04:13:36.877Z,2.47
2023-05-02T04:14:36.883Z,2.47
2023-05-02T04:15:36.887Z,2.43
2023-05-02T04:16:37.227Z,2.42
2023-05-02T04:17:37.051Z,2.43
2023-05-02T04:18:36.991Z,2.42
2023-05-02T04:19:37.064Z,2.46
2023-05-02T04:20:37.073Z,2.41
2023-05-02T04:21:37.118Z,2.37
2023-05-02T04:22:37.169Z,2.39
2023-05-02T04:23:37.180Z,2.41
2023-05-02T04:24:37.199Z,2.37
2023-05-02T04:25:37.268Z,2.36
2023-05-02T04:26:37.322Z,2.40
2023-05-02T04:27:37.312Z,2.39
2023-05-02T04:28:37.344Z,2.36
2023-05-02T04:29:37.398Z,2.36
2023-05-02T04:30:37.465Z,2.38
2023-05-02T04:31:37.464Z,2.38
2023-05-02T04:32:37.495Z,2.39
2023-05-02T04:33:37.524Z,2.33
2023-05-02T04:34:37.528Z,2.36
2023-05-02T04:35:37.547Z,2.34
2023-05-02T04:36:37.591Z,2.31
2023-05-02T04:37:38.139Z,2.36
2023-05-02T04:38:37.695Z,2.34
2023-05-02T04:39:37.720Z,2.32
2023-05-02T04:40:37.781Z,2.32
2023-05-02T04:41:37.837Z,2.30
2023-05-02T04:42:37.843Z,2.32
2023-05-02T04:43:37.844Z,2.28
2023-05-02T04:44:37.902Z,2.29
2023-05-02T04:45:37.972Z,2.33
2023-05-02T04:46:37.992Z,2.30
2023-05-02T04:47:38.239Z,2.32
2023-05-02T04:48:38.021Z,2.27
2023-05-02T04:49:38.027Z,2.27
2023-05-02T04:50:38.097Z,2.26
2023-05-02T04:51:38.089Z,2.24
2023-05-02T04:52:38.127Z,2.21
2023-05-02T04:53:38.142Z,2.09
2023-05-02T04:54:38.230Z,1.92
2023-05-02T04:55:38.241Z,1.84
2023-05-02T04:56:38.281Z,1.73
2023-05-02T04:57:38.307Z,1.54
2023-05-02T04:58:38.399Z,1.43
2023-05-02T04:59:38.418Z,1.39
2023-05-02T05:00:38.484Z,1.30
2023-05-02T05:01:38.576Z,1.21
2023-05-02T05:02:38.614Z,1.15
2023-05-02T05:03:38.778Z,1.11
2023-05-02T05:04:39.673Z,1.06
2023-05-02T05:05:38.808Z,0.98
2023-05-02T05:06:38.900Z,0.96
2023-05-02T05:07:38.767Z,0.92
2023-05-02T05:08:38.838Z,0.88
2023-05-02T05:09:38.890Z,0.85
2023-05-02T05:10:38.945Z,0.82
2023-05-02T05:11:38.999Z,0.79
2023-05-02T05:12:39.067Z,0.76
2023-05-02T05:13:39.079Z,0.74
2023-05-02T05:14:39.135Z,0.73
2023-05-02T05:15:39.157Z,0.70
2023-05-02T05:16:39.427Z,0.67
2023-05-02T05:17:39.358Z,0.66
2023-05-02T05:18:39.369Z,0.64
2023-05-02T05:19:39.438Z,0.62
2023-05-02T05:20:39.451Z,0.62
2023-05-02T05:21:39.494Z,0.60
2023-05-02T05:22:39.497Z,0.60
2023-05-02T05:23:39.504Z,0.61
2023-05-02T05:24:39.560Z,0.62
2023-05-02T05:25:39.668Z,0.61
2023-05-02T05:26:39.719Z,0.60
2023-05-02T05:27:39.784Z,0.62
2023-05-02T05:28:39.744Z,0.63
2023-05-02T05:29:39.853Z,0.63
2023-05-02T05:30:39.924Z,0.77
2023-05-02T05:31:40.000Z,0.75
2023-05-02T05:32:40.066Z,0.73
2023-05-02T05:33:40.201Z,0.65
2023-05-02T05:34:40.151Z,0.66
2023-05-02T05:35:40.191Z,0.66
2023-05-02T05:36:40.230Z,0.63
2023-05-02T05:37:40.289Z,0.66
2023-05-02T05:38:40.338Z,0.66
2023-05-02T05:39:40.389Z,0.66
2023-05-02T05:40:40.437Z,0.66
2023-05-02T05:41:40.524Z,0.67
2023-05-02T05:42:40.553Z,0.68
2023-05-02T05:43:40.620Z,0.73
2023-05-02T05:44:40.683Z,0.81
2023-05-02T05:45:40.728Z,1.06
2023-05-02T05:46:40.889Z,1.06
2023-05-02T05:47:40.975Z,0.99
2023-05-02T05:48:40.919Z,1.25
2023-05-02T05:49:40.966Z,1.32
2023-05-02T05:50:41.068Z,1.42
2023-05-02T05:51:41.131Z,1.64
2023-05-02T05:52:41.214Z,1.98
2023-05-02T05:53:41.207Z,2.21
2023-05-02T05:54:41.254Z,2.12
2023-05-02T05:55:42.435Z,2.24
2023-05-02T05:56:41.319Z,2.44
2023-05-02T05:57:41.383Z,2.86
2023-05-02T05:58:41.393Z,3.08
2023-05-02T05:59:41.450Z,3.20
2023-05-02T06:00:41.461Z,3.52
2023-05-02T06:01:41.475Z,3.76
2023-05-02T06:02:41.554Z,4.24
2023-05-02T06:03:41.749Z,4.23
2023-05-02T06:04:41.626Z,4.80
2023-05-02T06:05:41.633Z,4.93
2023-05-02T06:06:41.691Z,5.00
2023-05-02T06:07:41.616Z,5.07
2023-05-02T06:08:41.571Z,5.23
2023-05-02T06:09:41.630Z,5.49
2023-05-02T06:10:41.634Z,5.55
2023-05-02T06:11:41.590Z,5.77
2023-05-02T06:12:41.602Z,5.83
2023-05-02T06:13:41.742Z,5.90
2023-05-02T06:14:41.666Z,5.73
2023-05-02T06:15:41.691Z,5.88
2023-05-02T06:16:41.701Z,5.92
2023-05-02T06:17:41.835Z,5.81
2023-05-02T06:18:41.713Z,5.83
2023-05-02T06:19:41.678Z,5.87
2023-05-02T06:20:41.695Z,5.65
2023-05-02T06:21:41.751Z,5.91
2023-05-02T06:22:41.745Z,5.92
2023-05-02T06:23:41.781Z,5.95
2023-05-02T06:24:41.854Z,6.01
2023-05-02T06:25:41.845Z,5.93
2023-05-02T06:26:41.883Z,6.19
2023-05-02T06:27:41.951Z,6.24
2023-05-02T06:28:42.013Z,6.32
2023-05-02T06:29:41.991Z,6.62
2023-05-02T06:30:42.024Z,6.57
2023-05-02T06:31:42.126Z,6.95
2023-05-02T06:32:42.167Z,6.86
2023-05-02T06:33:42.242Z,6.71
2023-05-02T06:34:42.325Z,7.23
2023-05-02T06:35:42.346Z,7.17
2023-05-02T06:36:42.372Z,7.09
2023-05-02T06:37:42.468Z,7.26
2023-05-02T06:38:42.554Z,7.42
2023-05-02T06:39:42.601Z,7.21
2023-05-02T06:40:42.634Z,7.49
2023-05-02T06:41:42.718Z,7.17
2023-05-02T06:42:42.742Z,7.11
2023-05-02T06:43:42.780Z,7.09
2023-05-02T06:44:42.823Z,7.37
2023-05-02T06:45:42.853Z,7.07
2023-05-02T06:46:43.051Z,7.40
2023-05-02T06:47:43.035Z,7.11
2023-05-02T06:48:42.988Z,6.86
2023-05-02T06:49:43.006Z,6.72
2023-05-02T06:50:43.049Z,7.00
2023-05-02T06:51:43.138Z,7.69
2023-05-02T06:52:43.139Z,6.86
2023-05-02T06:53:43.194Z,6.59
2023-05-02T06:54:43.179Z,6.73
2023-05-02T06:55:43.266Z,6.91
2023-05-02T06:56:43.270Z,7.32
2023-05-02T06:57:43.328Z,7.18
2023-05-02T06:58:43.546Z,6.82
2023-05-02T06:59:43.401Z,7.07
2023-05-02T07:00:43.481Z,7.21
2023-05-02T07:01:43.517Z,3.20
2023-05-02T07:02:43.567Z,2.25
2023-05-02T07:03:43.592Z,1.75
2023-05-02T07:04:43.803Z,1.54
2023-05-02T07:05:43.577Z,1.62
2023-05-02T07:06:43.644Z,1.62
2023-05-02T07:07:43.574Z,1.75
2023-05-02T07:08:43.584Z,1.57
2023-05-02T07:09:43.585Z,1.50
2023-05-02T07:10:43.610Z,1.63
2023-05-02T07:11:43.602Z,1.78
2023-05-02T07:12:43.683Z,2.05
2023-05-02T07:13:43.632Z,2.22
2023-05-02T07:14:43.635Z,2.21
2023-05-02T07:15:43.696Z,1.86
2023-05-02T07:16:43.667Z,2.22
2023-05-02T07:17:43.715Z,2.29
2023-05-02T07:18:43.679Z,1.81
2023-05-02T07:19:45.369Z,1.98
2023-05-02T07:20:43.686Z,2.13
2023-05-02T07:21:43.681Z,2.20
2023-05-02T07:22:43.701Z,2.33
2023-05-02T07:23:43.689Z,2.32
2023-05-02T07:24:43.724Z,2.46
2023-05-02T07:25:43.754Z,2.69
2023-05-02T07:26:43.835Z,2.83
2023-05-02T07:27:43.877Z,2.89
2023-05-02T07:28:43.953Z,2.95
2023-05-02T07:29:43.976Z,3.02
2023-05-02T07:30:44.064Z,3.60
2023-05-02T07:31:44.190Z,3.70
2023-05-02T07:32:44.157Z,3.67
2023-05-02T07:33:44.228Z,3.58
2023-05-02T07:34:44.249Z,3.85
2023-05-02T07:35:44.292Z,3.93
2023-05-02T07:36:44.343Z,4.05
2023-05-02T07:37:44.402Z,4.01
2023-05-02T07:38:44.516Z,4.02
2023-05-02T07:39:44.432Z,4.14
2023-05-02T07:40:44.474Z,4.04
2023-05-02T07:41:44.526Z,3.96
2023-05-02T07:42:44.534Z,4.05
2023-05-02T07:43:44.548Z,4.10
2023-05-02T07:44:51.621Z,4.10
2023-05-02T07:45:44.657Z,4.12
2023-05-02T07:46:44.624Z,4.17
2023-05-02T07:47:44.582Z,4.18
2023-05-02T07:48:44.586Z,3.61
2023-05-02T07:49:44.586Z,3.72
2023-05-02T07:50:44.529Z,4.65
2023-05-02T07:51:44.556Z,3.77
2023-05-02T07:52:44.569Z,3.89
2023-05-02T07:53:44.537Z,3.83
2023-05-02T07:54:44.514Z,3.93
2023-05-02T07:55:44.485Z,4.52
2023-05-02T07:56:44.529Z,4.60
2023-05-02T07:57:44.776Z,4.08
2023-05-02T07:58:44.476Z,3.99
2023-05-02T07:59:44.448Z,4.79
2023-05-02T08:00:44.465Z,4.55
2023-05-02T08:01:44.477Z,4.47
2023-05-02T08:02:44.822Z,4.58
2023-05-02T08:03:44.598Z,4.35
2023-05-02T08:04:44.517Z,3.92
2023-05-02T08:05:44.420Z,3.96
2023-05-02T08:06:44.484Z,4.14
2023-05-02T08:07:44.405Z,3.82
2023-05-02T08:08:44.410Z,3.85
2023-05-02T08:09:44.383Z,3.65
2023-05-02T08:10:44.444Z,3.62
2023-05-02T08:11:44.382Z,3.45
2023-05-02T08:12:44.387Z,3.38
2023-05-02T08:13:44.381Z,3.35
2023-05-02T08:14:44.356Z,3.32
2023-05-02T08:15:44.392Z,3.24
2023-05-02T08:16:46.217Z,3.15
2023-05-02T08:17:44.447Z,3.23
2023-05-02T08:18:44.442Z,3.13
2023-05-02T08:19:44.482Z,3.08
2023-05-02T08:20:44.497Z,3.02
2023-05-02T08:21:44.512Z,3.07
2023-05-02T08:22:44.528Z,2.94
2023-05-02T08:23:44.564Z,2.98
2023-05-02T08:24:44.630Z,2.83
2023-05-02T08:25:44.634Z,2.79
2023-05-02T08:26:44.647Z,2.87
2023-05-02T08:27:44.706Z,2.88
2023-05-02T08:28:44.676Z,2.81
2023-05-02T08:29:44.704Z,2.76
2023-05-02T08:30:44.777Z,2.73
2023-05-02T08:31:44.835Z,2.72
2023-05-02T08:32:45.333Z,2.69
2023-05-02T08:33:44.806Z,2.67
2023-05-02T08:34:44.809Z,2.68
2023-05-02T08:35:44.830Z,2.68
2023-05-02T08:36:44.885Z,2.59
2023-05-02T08:37:44.966Z,2.57
2023-05-02T08:38:44.929Z,2.52
2023-05-02T08:39:44.944Z,2.54
2023-05-02T08:40:44.925Z,2.51
2023-05-02T08:41:44.982Z,2.53
2023-05-02T08:42:45.031Z,2.53
2023-05-02T08:43:45.020Z,2.36
2023-05-02T08:44:45.018Z,2.50
2023-05-02T08:45:45.052Z,2.37
2023-05-02T08:46:45.135Z,2.36
2023-05-02T08:47:45.110Z,2.56
2023-05-02T08:48:45.099Z,2.66
2023-05-02T08:49:45.104Z,3.03
2023-05-02T08:50:45.115Z,3.40
2023-05-02T08:51:45.110Z,3.15
2023-05-02T08:52:45.169Z,3.46
2023-05-02T08:53:45.192Z,3.61
2023-05-02T08:54:45.226Z,3.66
2023-05-02T08:55:45.201Z,3.52
2023-05-02T08:56:45.199Z,3.46
2023-05-02T08:57:45.267Z,3.73
2023-05-02T08:58:45.267Z,3.40
2023-05-02T08:59:45.293Z,3.88
2023-05-02T09:00:45.297Z,3.80
2023-05-02T09:01:45.426Z,3.92
2023-05-02T09:02:45.797Z,4.13
2023-05-02T09:03:45.300Z,4.18
2023-05-02T09:04:45.364Z,3.96
2023-05-02T09:05:45.318Z,4.01
2023-05-02T09:06:45.489Z,4.07
2023-05-02T09:07:45.339Z,4.01
2023-05-02T09:08:45.341Z,4.42
2023-05-02T09:09:45.337Z,4.46
2023-05-02T09:10:45.364Z,4.32
2023-05-02T09:11:45.354Z,4.38
2023-05-02T09:12:45.416Z,4.56
2023-05-02T09:13:45.417Z,4.40
2023-05-02T09:14:45.493Z,4.22
2023-05-02T09:15:45.481Z,4.25
2023-05-02T09:16:45.509Z,4.30
2023-05-02T09:17:45.615Z,4.20
2023-05-02T09:18:45.558Z,4.08
2023-05-02T09:19:45.619Z,4.16
2023-05-02T09:20:45.628Z,4.08
2023-05-02T09:21:45.680Z,4.23
2023-05-02T09:22:45.792Z,4.14
2023-05-02T09:23:45.849Z,4.28
2023-05-02T09:24:45.860Z,4.09
2023-05-02T09:25:45.922Z,4.00
2023-05-02T09:26:45.997Z,4.09
2023-05-02T09:27:46.289Z,3.98
2023-05-02T09:28:46.056Z,3.80
2023-05-02T09:29:46.098Z,3.86
2023-05-02T09:30:46.187Z,3.64
2023-05-02T09:31:55.565Z,3.60
2023-05-02T09:32:47.317Z,3.60
2023-05-02T09:33:46.179Z,3.59
2023-05-02T09:34:46.176Z,3.61
2023-05-02T09:35:46.133Z,3.75
2023-05-02T09:36:46.198Z,3.83
2023-05-02T09:37:46.164Z,3.84
2023-05-02T09:38:46.167Z,3.89
2023-05-02T09:39:46.172Z,3.77
2023-05-02T09:40:46.224Z,3.94
2023-05-02T09:41:46.277Z,3.79
2023-05-02T09:42:46.353Z,3.84
2023-05-02T09:43:46.360Z,4.20
2023-05-02T09:44:46.407Z,4.24
2023-05-02T09:45:46.496Z,3.93
2023-05-02T09:46:46.529Z,3.27
2023-05-02T09:47:46.619Z,3.31
2023-05-02T09:48:46.624Z,3.27
2023-05-02T09:49:46.903Z,3.06
2023-05-02T09:50:46.695Z,2.77
2023-05-02T09:51:46.701Z,2.85
2023-05-02T09:52:46.713Z,2.98
2023-05-02T09:53:46.823Z,2.96
2023-05-02T09:54:56.750Z,2.74
2023-05-02T09:55:47.868Z,2.69
2023-05-02T09:56:46.696Z,2.41
2023-05-02T09:57:46.692Z,2.26
2023-05-02T09:58:46.782Z,2.17
2023-05-02T09:59:46.661Z,2.07
2023-05-02T10:00:46.679Z,1.97
2023-05-02T10:01:46.748Z,1.79
2023-05-02T10:02:46.679Z,1.70
2023-05-02T10:03:46.802Z,1.67
2023-05-02T10:04:46.662Z,1.65
2023-05-02T10:05:46.599Z,1.46
2023-05-02T10:06:46.734Z,1.39
2023-05-02T10:07:46.657Z,1.32
2023-05-02T10:08:46.821Z,1.27
2023-05-02T10:09:46.624Z,1.24
2023-05-02T10:10:46.641Z,1.22
2023-05-02T10:11:46.605Z,1.18
2023-05-02T10:12:46.588Z,1.19
2023-05-02T10:13:46.801Z,1.18
2023-05-02T10:14:46.705Z,1.07
2023-05-02T10:15:46.726Z,1.04
2023-05-02T10:16:46.739Z,1.05
2023-05-02T10:17:46.789Z,1.06
2023-05-02T10:18:47.297Z,1.05
2023-05-02T10:19:46.910Z,0.98
2023-05-02T10:20:46.963Z,0.93
2023-05-02T10:21:46.975Z,0.91
2023-05-02T10:22:47.020Z,0.91
2023-05-02T10:23:47.093Z,0.89
2023-05-02T10:24:47.101Z,0.95
2023-05-02T10:25:47.191Z,0.91
2023-05-02T10:26:47.302Z,0.84
2023-05-02T10:27:47.304Z,0.84
2023-05-02T10:28:47.343Z,0.82
2023-05-02T10:29:47.392Z,0.84
2023-05-02T10:30:47.418Z,0.83
2023-05-02T10:31:47.597Z,0.77
2023-05-02T10:32:47.597Z,0.79
2023-05-02T10:33:47.585Z,0.77
2023-05-02T10:34:47.682Z,0.75
2023-05-02T10:35:47.706Z,0.70
2023-05-02T10:36:47.726Z,0.68
2023-05-02T10:37:47.820Z,0.59
2023-05-02T10:38:47.838Z,0.58
2023-05-02T10:39:47.909Z,0.65
2023-05-02T10:40:47.951Z,0.56
2023-05-02T10:41:47.985Z,0.50
2023-05-02T10:42:48.014Z,0.50
2023-05-02T10:43:48.097Z,0.50
2023-05-02T10:44:48.165Z,0.51
2023-05-02T10:45:48.190Z,0.50
2023-05-02T10:46:48.249Z,0.50
2023-05-02T10:47:48.351Z,0.52
2023-05-02T10:48:48.363Z,0.88
2023-05-02T10:49:48.404Z,0.92
2023-05-02T10:50:48.436Z,0.78
2023-05-02T10:51:48.457Z,0.93
2023-05-02T10:52:48.535Z,0.96
2023-05-02T10:53:48.551Z,1.16
2023-05-02T10:54:48.537Z,1.17
2023-05-02T10:55:48.575Z,1.17
2023-05-02T10:56:48.617Z,1.18
2023-05-02T10:57:48.674Z,1.29
2023-05-02T10:58:48.626Z,1.24
2023-05-02T10:59:48.651Z,1.25
2023-05-02T11:00:48.739Z,1.33
2023-05-02T11:01:48.681Z,1.33
2023-05-02T11:02:48.876Z,1.39
2023-05-02T11:03:48.824Z,1.39
2023-05-02T11:04:48.718Z,1.33
2023-05-02T11:05:48.715Z,1.36
2023-05-02T11:06:48.745Z,1.46
2023-05-02T11:07:48.738Z,1.50
2023-05-02T11:08:48.739Z,1.43
2023-05-02T11:09:48.751Z,1.32
2023-05-02T11:10:48.760Z,1.38
2023-05-02T11:11:48.782Z,1.32
2023-05-02T11:12:48.785Z,1.23
2023-05-02T11:13:48.814Z,1.31
2023-05-02T11:14:48.841Z,1.28
2023-05-02T11:15:48.804Z,1.32
2023-05-02T11:16:48.818Z,1.45
2023-05-02T11:17:48.904Z,1.37
2023-05-02T11:18:49.341Z,1.33
2023-05-02T11:19:48.814Z,1.20
2023-05-02T11:20:48.844Z,1.28
2023-05-02T11:21:48.864Z,1.46
2023-05-02T11:22:48.858Z,1.47
2023-05-02T11:23:48.848Z,1.41
2023-05-02T11:24:48.864Z,1.37
2023-05-02T11:25:48.883Z,1.31
2023-05-02T11:26:48.874Z,1.42
2023-05-02T11:27:48.876Z,1.30
2023-05-02T11:28:48.889Z,1.44
2023-05-02T11:29:48.841Z,1.43
2023-05-02T11:30:48.924Z,1.36
2023-05-02T11:31:48.853Z,1.39
2023-05-02T11:32:48.888Z,1.27
2023-05-02T11:33:48.868Z,1.09
2023-05-02T11:34:48.883Z,1.04
2023-05-02T11:35:49.053Z,0.98
2023-05-02T11:36:48.890Z,0.96
2023-05-02T11:37:48.885Z,0.93
2023-05-02T11:38:48.865Z,0.96
2023-05-02T11:39:48.923Z,0.89
2023-05-02T11:40:48.923Z,0.91
2023-05-02T11:41:49.001Z,0.82
2023-05-02T11:42:49.007Z,0.83
2023-05-02T11:43:49.359Z,0.80
2023-05-02T11:44:49.045Z,0.79
2023-05-02T11:45:49.107Z,0.80
2023-05-02T11:46:49.210Z,0.76
2023-05-02T11:47:49.192Z,0.74
2023-05-02T11:48:49.167Z,0.72
2023-05-02T11:49:49.194Z,0.68
2023-05-02T11:50:50.396Z,0.68
2023-05-02T11:51:49.301Z,0.66
2023-05-02T11:52:49.324Z,0.66
2023-05-02T11:53:49.336Z,0.62
2023-05-02T11:54:49.385Z,0.62
2023-05-02T11:55:49.401Z,0.60
2023-05-02T11:56:49.437Z,0.59
2023-05-02T11:57:49.532Z,0.59
2023-05-02T11:58:49.514Z,0.57
2023-05-02T11:59:49.574Z,0.55
2023-05-02T12:00:49.631Z,0.54
2023-05-02T12:01:49.695Z,0.54
2023-05-02T12:02:49.838Z,0.54
2023-05-02T12:03:49.902Z,0.52
2023-05-02T12:04:49.806Z,0.50
2023-05-02T12:05:49.918Z,0.52
2023-05-02T12:06:49.960Z,0.52
2023-05-02T12:07:49.991Z,0.51
2023-05-02T12:08:50.003Z,0.51
2023-05-02T12:09:50.050Z,0.50
2023-05-02T12:10:50.129Z,0.52
2023-05-02T12:11:50.162Z,0.52
2023-05-02T12:12:50.239Z,0.51
2023-05-02T12:13:50.759Z,0.50
2023-05-02T12:14:50.351Z,0.53
2023-05-02T12:15:50.535Z,0.50
2023-05-02T12:16:50.466Z,0.50
2023-05-02T12:17:50.561Z,0.50
2023-05-02T12:18:50.652Z,0.52
2023-05-02T12:19:50.699Z,0.51
2023-05-02T12:20:50.682Z,0.50
2023-05-02T12:21:50.755Z,0.52
2023-05-02T12:22:50.822Z,0.51
2023-05-02T12:23:50.977Z,0.51
2023-05-02T12:24:50.943Z,0.53
2023-05-02T12:25:50.978Z,0.53
2023-05-02T12:26:51.856Z,0.52
2023-05-02T12:27:51.105Z,0.54
2023-05-02T12:28:51.158Z,0.54
2023-05-02T12:29:51.204Z,0.57
2023-05-02T12:30:51.266Z,0.79
2023-05-02T12:31:51.324Z,1.07
2023-05-02T12:32:51.364Z,1.10
2023-05-02T12:33:51.444Z,1.44
2023-05-02T12:34:51.441Z,1.69
2023-05-02T12:35:51.516Z,1.84
2023-05-02T12:36:51.561Z,2.09
2023-05-02T12:37:51.576Z,2.27
2023-05-02T12:38:51.844Z,2.75
2023-05-02T12:39:51.637Z,3.04
2023-05-02T12:40:51.626Z,3.20
2023-05-02T12:41:51.623Z,3.17
2023-05-02T12:42:51.662Z,3.94
2023-05-02T12:43:51.634Z,4.08
2023-05-02T12:44:51.680Z,4.40
2023-05-02T12:45:51.636Z,4.21
2023-05-02T12:46:51.665Z,4.27
2023-05-02T12:47:51.680Z,4.32
2023-05-02T12:48:51.703Z,4.97
2023-05-02T12:49:51.733Z,4.56
2023-05-02T12:50:51.736Z,4.62
2023-05-02T12:51:51.822Z,5.90
2023-05-02T12:52:51.840Z,8.93
2023-05-02T12:53:51.877Z,9.84
2023-05-02T12:54:51.934Z,6.61
2023-05-02T12:55:51.966Z,6.50
2023-05-02T12:56:52.027Z,6.88
2023-05-02T12:57:52.081Z,6.77
2023-05-02T12:58:52.410Z,7.07
2023-05-02T12:59:52.201Z,7.82
2023-05-02T13:00:59.333Z,8.76
2023-05-02T13:01:52.225Z,8.81
2023-05-02T13:02:52.312Z,8.92
2023-05-02T13:03:52.291Z,9.30
2023-05-02T13:04:52.201Z,9.30
2023-05-02T13:05:52.203Z,10.48
2023-05-02T13:06:52.335Z,11.25
2023-05-02T13:07:52.169Z,9.61
2023-05-02T13:08:52.390Z,6.32
2023-05-02T13:09:52.199Z,5.73
2023-05-02T13:10:52.194Z,4.93
2023-05-02T13:11:52.188Z,4.16
2023-05-02T13:12:52.136Z,3.75
2023-05-02T13:13:52.135Z,3.57
2023-05-02T13:14:52.183Z,3.88
2023-05-02T13:15:52.118Z,3.30
2023-05-02T13:16:52.237Z,3.36
2023-05-02T13:17:52.243Z,3.33
2023-05-02T13:18:52.209Z,3.00